sensor_id;sensor_type;location;lat;lon;timestamp;P1;durP1;ratioP1;P2;durP2;ratioP2
9563;SDS011;4820;50.870;4.702;2023-07-13T00:01:50;4.70;;;2.20;;
9563;SDS011;4820;50.870;4.702;2023-07-13T00:04:17;6.28;;;2.15;;
9563;SDS011;4820;50.870;4.702;2023-07-13T00:06:45;8.10;;;2.38;;
9563;SDS011;4820;50.870;4.702;2023-07-13T00:09:15;4.95;;;2.20;;
9563;SDS011;4820;50.870;4.702;2023-07-13T00:11:42;7.03;;;2.38;;
9563;SDS011;4820;50.870;4.702;2023-07-13T00:14:09;6.03;;;2.05;;
9563;SDS011;4820;50.870;4.702;2023-07-13T00:16:36;7.25;;;2.10;;
9563;SDS011;4820;50.870;4.702;2023-07-13T00:19:04;4.95;;;2.05;;
9563;SDS011;4820;50.870;4.702;2023-07-13T00:21:33;3.78;;;2.00;;
9563;SDS011;4820;50.870;4.702;2023-07-13T00:24:00;5.72;;;2.15;;
9563;SDS011;4820;50.870;4.702;2023-07-13T00:26:26;5.07;;;1.90;;
9563;SDS011;4820;50.870;4.702;2023-07-13T00:28:52;6.60;;;1.92;;
9563;SDS011;4820;50.870;4.702;2023-07-13T00:31:17;6.68;;;2.35;;
9563;SDS011;4820;50.870;4.702;2023-07-13T00:33:43;5.10;;;2.10;;
9563;SDS011;4820;50.870;4.702;2023-07-13T00:36:09;5.78;;;2.13;;
9563;SDS011;4820;50.870;4.702;2023-07-13T00:38:36;6.53;;;2.33;;
9563;SDS011;4820;50.870;4.702;2023-07-13T00:41:02;6.40;;;2.35;;
9563;SDS011;4820;50.870;4.702;2023-07-13T00:43:29;6.00;;;2.17;;
9563;SDS011;4820;50.870;4.702;2023-07-13T00:48:21;6.70;;;2.30;;
9563;SDS011;4820;50.870;4.702;2023-07-13T00:50:51;5.72;;;2.30;;
9563;SDS011;4820;50.870;4.702;2023-07-13T00:53:21;6.07;;;2.30;;
9563;SDS011;4820;50.870;4.702;2023-07-13T00:55:48;4.30;;;2.30;;
9563;SDS011;4820;50.870;4.702;2023-07-13T00:58:14;5.03;;;2.20;;
9563;SDS011;4820;50.870;4.702;2023-07-13T01:00:40;6.13;;;2.30;;
9563;SDS011;4820;50.870;4.702;2023-07-13T01:03:07;4.35;;;2.20;;
9563;SDS011;4820;50.870;4.702;2023-07-13T01:05:33;5.80;;;2.40;;
9563;SDS011;4820;50.870;4.702;2023-07-13T01:08:00;6.35;;;2.15;;
9563;SDS011;4820;50.870;4.702;2023-07-13T01:10:28;5.38;;;2.35;;
9563;SDS011;4820;50.870;4.702;2023-07-13T01:12:54;9.40;;;2.42;;
9563;SDS011;4820;50.870;4.702;2023-07-13T01:18:08;7.53;;;2.30;;
9563;SDS011;4820;50.870;4.702;2023-07-13T01:20:37;5.85;;;2.33;;
9563;SDS011;4820;50.870;4.702;2023-07-13T01:23:04;7.18;;;2.40;;
9563;SDS011;4820;50.870;4.702;2023-07-13T01:25:31;6.03;;;2.53;;
9563;SDS011;4820;50.870;4.702;2023-07-13T01:27:57;6.90;;;2.35;;
9563;SDS011;4820;50.870;4.702;2023-07-13T01:30:22;4.85;;;2.63;;
9563;SDS011;4820;50.870;4.702;2023-07-13T01:32:48;7.65;;;2.60;;
9563;SDS011;4820;50.870;4.702;2023-07-13T01:35:14;5.20;;;2.42;;
9563;SDS011;4820;50.870;4.702;2023-07-13T01:37:41;3.72;;;2.30;;
9563;SDS011;4820;50.870;4.702;2023-07-13T01:40:08;5.35;;;2.38;;
9563;SDS011;4820;50.870;4.702;2023-07-13T01:42:34;7.20;;;2.30;;
9563;SDS011;4820;50.870;4.702;2023-07-13T01:45:02;3.72;;;1.75;;
9563;SDS011;4820;50.870;4.702;2023-07-13T01:47:28;8.55;;;2.55;;
9563;SDS011;4820;50.870;4.702;2023-07-13T01:49:56;6.55;;;2.35;;
9563;SDS011;4820;50.870;4.702;2023-07-13T01:52:22;5.53;;;2.40;;
9563;SDS011;4820;50.870;4.702;2023-07-13T01:54:49;7.03;;;2.63;;
9563;SDS011;4820;50.870;4.702;2023-07-13T01:57:15;7.72;;;2.38;;
9563;SDS011;4820;50.870;4.702;2023-07-13T01:59:40;7.03;;;2.60;;
9563;SDS011;4820;50.870;4.702;2023-07-13T02:02:08;5.72;;;2.38;;
9563;SDS011;4820;50.870;4.702;2023-07-13T02:04:34;5.03;;;2.38;;
9563;SDS011;4820;50.870;4.702;2023-07-13T02:07:02;6.10;;;2.40;;
9563;SDS011;4820;50.870;4.702;2023-07-13T02:09:27;7.97;;;2.20;;
9563;SDS011;4820;50.870;4.702;2023-07-13T02:11:53;6.05;;;2.70;;
9563;SDS011;4820;50.870;4.702;2023-07-13T02:14:20;6.97;;;2.60;;
9563;SDS011;4820;50.870;4.702;2023-07-13T02:16:46;7.47;;;2.42;;
9563;SDS011;4820;50.870;4.702;2023-07-13T02:19:13;7.93;;;2.90;;
9563;SDS011;4820;50.870;4.702;2023-07-13T02:21:40;5.97;;;2.92;;
9563;SDS011;4820;50.870;4.702;2023-07-13T02:24:06;6.95;;;2.78;;
9563;SDS011;4820;50.870;4.702;2023-07-13T02:26:31;6.25;;;2.55;;
9563;SDS011;4820;50.870;4.702;2023-07-13T02:28:57;10.23;;;2.70;;
9563;SDS011;4820;50.870;4.702;2023-07-13T02:31:24;5.93;;;2.40;;
9563;SDS011;4820;50.870;4.702;2023-07-13T02:33:49;7.25;;;2.67;;
9563;SDS011;4820;50.870;4.702;2023-07-13T02:36:15;4.43;;;2.58;;
9563;SDS011;4820;50.870;4.702;2023-07-13T02:38:41;8.98;;;2.65;;
9563;SDS011;4820;50.870;4.702;2023-07-13T02:41:08;6.05;;;2.33;;
9563;SDS011;4820;50.870;4.702;2023-07-13T02:43:34;6.25;;;2.50;;
9563;SDS011;4820;50.870;4.702;2023-07-13T02:46:01;7.28;;;2.90;;
9563;SDS011;4820;50.870;4.702;2023-07-13T02:48:33;9.13;;;2.55;;
9563;SDS011;4820;50.870;4.702;2023-07-13T02:50:59;5.78;;;2.50;;
9563;SDS011;4820;50.870;4.702;2023-07-13T02:53:25;8.60;;;2.70;;
9563;SDS011;4820;50.870;4.702;2023-07-13T02:55:51;7.47;;;2.92;;
9563;SDS011;4820;50.870;4.702;2023-07-13T02:58:16;6.78;;;2.47;;
9563;SDS011;4820;50.870;4.702;2023-07-13T03:00:42;7.50;;;2.72;;
9563;SDS011;4820;50.870;4.702;2023-07-13T03:03:10;7.45;;;2.88;;
9563;SDS011;4820;50.870;4.702;2023-07-13T03:05:39;7.78;;;2.80;;
9563;SDS011;4820;50.870;4.702;2023-07-13T03:08:07;7.40;;;2.90;;
9563;SDS011;4820;50.870;4.702;2023-07-13T03:10:33;6.15;;;2.95;;
9563;SDS011;4820;50.870;4.702;2023-07-13T03:12:58;8.38;;;2.85;;
9563;SDS011;4820;50.870;4.702;2023-07-13T03:15:26;6.53;;;2.80;;
9563;SDS011;4820;50.870;4.702;2023-07-13T03:17:52;6.80;;;2.40;;
9563;SDS011;4820;50.870;4.702;2023-07-13T03:20:19;9.88;;;2.60;;
9563;SDS011;4820;50.870;4.702;2023-07-13T03:22:45;7.97;;;2.90;;
9563;SDS011;4820;50.870;4.702;2023-07-13T03:25:10;5.38;;;2.70;;
9563;SDS011;4820;50.870;4.702;2023-07-13T03:27:37;5.88;;;2.83;;
9563;SDS011;4820;50.870;4.702;2023-07-13T03:30:03;8.50;;;2.85;;
9563;SDS011;4820;50.870;4.702;2023-07-13T03:32:32;7.03;;;2.53;;
9563;SDS011;4820;50.870;4.702;2023-07-13T03:34:57;10.98;;;3.13;;
9563;SDS011;4820;50.870;4.702;2023-07-13T03:37:23;7.22;;;2.67;;
9563;SDS011;4820;50.870;4.702;2023-07-13T03:39:49;7.57;;;3.00;;
9563;SDS011;4820;50.870;4.702;2023-07-13T03:42:15;5.30;;;2.47;;
9563;SDS011;4820;50.870;4.702;2023-07-13T03:44:42;7.00;;;2.80;;
9563;SDS011;4820;50.870;4.702;2023-07-13T03:47:11;7.38;;;2.90;;
9563;SDS011;4820;50.870;4.702;2023-07-13T03:49:38;7.07;;;2.60;;
9563;SDS011;4820;50.870;4.702;2023-07-13T03:52:03;6.90;;;2.60;;
9563;SDS011;4820;50.870;4.702;2023-07-13T03:54:30;11.65;;;3.35;;
9563;SDS011;4820;50.870;4.702;2023-07-13T03:56:55;8.63;;;3.00;;
9563;SDS011;4820;50.870;4.702;2023-07-13T03:59:22;8.73;;;2.90;;
9563;SDS011;4820;50.870;4.702;2023-07-13T04:01:47;7.38;;;2.90;;
9563;SDS011;4820;50.870;4.702;2023-07-13T04:04:13;8.82;;;2.80;;
9563;SDS011;4820;50.870;4.702;2023-07-13T04:06:40;9.50;;;3.00;;
9563;SDS011;4820;50.870;4.702;2023-07-13T04:09:08;7.15;;;2.80;;
9563;SDS011;4820;50.870;4.702;2023-07-13T04:11:35;8.00;;;2.85;;
9563;SDS011;4820;50.870;4.702;2023-07-13T04:14:03;9.07;;;2.97;;
9563;SDS011;4820;50.870;4.702;2023-07-13T04:16:29;7.97;;;2.88;;
9563;SDS011;4820;50.870;4.702;2023-07-13T04:18:55;9.45;;;2.85;;
9563;SDS011;4820;50.870;4.702;2023-07-13T04:21:29;8.07;;;2.60;;
9563;SDS011;4820;50.870;4.702;2023-07-13T04:23:56;5.63;;;2.70;;
9563;SDS011;4820;50.870;4.702;2023-07-13T04:26:23;8.05;;;3.33;;
9563;SDS011;4820;50.870;4.702;2023-07-13T04:28:50;9.75;;;3.25;;
9563;SDS011;4820;50.870;4.702;2023-07-13T04:31:17;8.50;;;2.83;;
9563;SDS011;4820;50.870;4.702;2023-07-13T04:33:43;10.63;;;3.22;;
9563;SDS011;4820;50.870;4.702;2023-07-13T04:36:09;7.55;;;2.80;;
9563;SDS011;4820;50.870;4.702;2023-07-13T04:38:35;7.80;;;3.13;;
9563;SDS011;4820;50.870;4.702;2023-07-13T04:41:02;6.35;;;2.97;;
9563;SDS011;4820;50.870;4.702;2023-07-13T04:43:31;7.95;;;3.50;;
9563;SDS011;4820;50.870;4.702;2023-07-13T04:46:03;8.23;;;3.10;;
9563;SDS011;4820;50.870;4.702;2023-07-13T04:48:31;7.22;;;3.20;;
9563;SDS011;4820;50.870;4.702;2023-07-13T04:50:57;11.38;;;2.83;;
9563;SDS011;4820;50.870;4.702;2023-07-13T04:53:23;10.23;;;3.45;;
9563;SDS011;4820;50.870;4.702;2023-07-13T04:55:49;9.75;;;3.00;;
9563;SDS011;4820;50.870;4.702;2023-07-13T04:58:16;10.52;;;3.17;;
9563;SDS011;4820;50.870;4.702;2023-07-13T05:00:41;8.63;;;3.22;;
9563;SDS011;4820;50.870;4.702;2023-07-13T05:03:08;12.38;;;2.90;;
9563;SDS011;4820;50.870;4.702;2023-07-13T05:05:34;7.43;;;2.90;;
9563;SDS011;4820;50.870;4.702;2023-07-13T05:08:01;9.77;;;3.38;;
9563;SDS011;4820;50.870;4.702;2023-07-13T05:10:28;13.65;;;4.00;;
9563;SDS011;4820;50.870;4.702;2023-07-13T05:12:53;7.13;;;2.78;;
9563;SDS011;4820;50.870;4.702;2023-07-13T05:15:20;10.55;;;3.10;;
9563;SDS011;4820;50.870;4.702;2023-07-13T05:17:47;9.85;;;3.97;;
9563;SDS011;4820;50.870;4.702;2023-07-13T05:20:14;11.45;;;3.40;;
9563;SDS011;4820;50.870;4.702;2023-07-13T05:22:42;11.13;;;3.40;;
9563;SDS011;4820;50.870;4.702;2023-07-13T05:25:08;11.25;;;3.40;;
9563;SDS011;4820;50.870;4.702;2023-07-13T05:27:35;9.40;;;3.22;;
9563;SDS011;4820;50.870;4.702;2023-07-13T05:30:02;8.75;;;3.35;;
9563;SDS011;4820;50.870;4.702;2023-07-13T05:32:29;10.05;;;3.78;;
9563;SDS011;4820;50.870;4.702;2023-07-13T05:34:54;9.75;;;3.78;;
9563;SDS011;4820;50.870;4.702;2023-07-13T05:37:20;11.43;;;3.75;;
9563;SDS011;4820;50.870;4.702;2023-07-13T05:39:47;9.38;;;3.40;;
9563;SDS011;4820;50.870;4.702;2023-07-13T05:42:12;11.25;;;3.95;;
9563;SDS011;4820;50.870;4.702;2023-07-13T05:44:39;8.85;;;4.05;;
9563;SDS011;4820;50.870;4.702;2023-07-13T05:47:05;8.98;;;3.10;;
9563;SDS011;4820;50.870;4.702;2023-07-13T05:49:30;10.15;;;3.83;;
9563;SDS011;4820;50.870;4.702;2023-07-13T05:51:56;9.00;;;3.33;;
9563;SDS011;4820;50.870;4.702;2023-07-13T05:54:22;10.45;;;3.35;;
9563;SDS011;4820;50.870;4.702;2023-07-13T05:56:48;12.80;;;3.65;;
9563;SDS011;4820;50.870;4.702;2023-07-13T05:59:13;10.75;;;3.30;;
9563;SDS011;4820;50.870;4.702;2023-07-13T06:01:39;11.70;;;3.15;;
9563;SDS011;4820;50.870;4.702;2023-07-13T06:04:07;9.15;;;3.53;;
9563;SDS011;4820;50.870;4.702;2023-07-13T06:06:33;10.93;;;3.55;;
9563;SDS011;4820;50.870;4.702;2023-07-13T06:08:59;12.07;;;3.58;;
9563;SDS011;4820;50.870;4.702;2023-07-13T06:11:25;9.30;;;3.47;;
9563;SDS011;4820;50.870;4.702;2023-07-13T06:13:52;10.68;;;4.10;;
9563;SDS011;4820;50.870;4.702;2023-07-13T06:16:20;10.57;;;3.70;;
9563;SDS011;4820;50.870;4.702;2023-07-13T06:18:45;9.98;;;3.13;;
9563;SDS011;4820;50.870;4.702;2023-07-13T06:21:18;12.32;;;3.53;;
9563;SDS011;4820;50.870;4.702;2023-07-13T06:23:46;9.82;;;3.47;;
9563;SDS011;4820;50.870;4.702;2023-07-13T06:26:16;8.00;;;3.40;;
9563;SDS011;4820;50.870;4.702;2023-07-13T06:28:43;9.75;;;3.38;;
9563;SDS011;4820;50.870;4.702;2023-07-13T06:31:10;9.65;;;3.60;;
9563;SDS011;4820;50.870;4.702;2023-07-13T06:33:37;10.23;;;4.20;;
9563;SDS011;4820;50.870;4.702;2023-07-13T06:36:04;12.40;;;3.88;;
9563;SDS011;4820;50.870;4.702;2023-07-13T06:38:32;8.10;;;3.30;;
9563;SDS011;4820;50.870;4.702;2023-07-13T06:41:00;9.63;;;3.47;;
9563;SDS011;4820;50.870;4.702;2023-07-13T06:43:26;9.73;;;3.20;;
9563;SDS011;4820;50.870;4.702;2023-07-13T06:45:54;12.60;;;3.88;;
9563;SDS011;4820;50.870;4.702;2023-07-13T06:48:20;12.00;;;4.05;;
9563;SDS011;4820;50.870;4.702;2023-07-13T06:50:47;12.65;;;4.07;;
9563;SDS011;4820;50.870;4.702;2023-07-13T06:53:14;13.30;;;4.05;;
9563;SDS011;4820;50.870;4.702;2023-07-13T06:55:40;9.82;;;3.55;;
9563;SDS011;4820;50.870;4.702;2023-07-13T06:58:09;14.60;;;4.10;;
9563;SDS011;4820;50.870;4.702;2023-07-13T07:00:35;11.75;;;3.65;;
9563;SDS011;4820;50.870;4.702;2023-07-13T07:03:01;12.70;;;3.55;;
9563;SDS011;4820;50.870;4.702;2023-07-13T07:05:27;8.35;;;3.55;;
9563;SDS011;4820;50.870;4.702;2023-07-13T07:07:53;11.68;;;3.85;;
9563;SDS011;4820;50.870;4.702;2023-07-13T07:10:20;8.68;;;3.67;;
9563;SDS011;4820;50.870;4.702;2023-07-13T07:12:46;10.77;;;3.60;;
9563;SDS011;4820;50.870;4.702;2023-07-13T07:15:13;10.52;;;4.18;;
9563;SDS011;4820;50.870;4.702;2023-07-13T07:17:39;8.70;;;3.65;;
9563;SDS011;4820;50.870;4.702;2023-07-13T07:20:05;9.45;;;3.72;;
9563;SDS011;4820;50.870;4.702;2023-07-13T07:22:31;9.05;;;3.33;;
9563;SDS011;4820;50.870;4.702;2023-07-13T07:24:57;9.77;;;3.60;;
9563;SDS011;4820;50.870;4.702;2023-07-13T07:27:23;10.52;;;3.78;;
9563;SDS011;4820;50.870;4.702;2023-07-13T07:29:50;11.95;;;3.63;;
9563;SDS011;4820;50.870;4.702;2023-07-13T07:32:17;11.10;;;3.78;;
9563;SDS011;4820;50.870;4.702;2023-07-13T07:34:43;9.68;;;4.00;;
9563;SDS011;4820;50.870;4.702;2023-07-13T07:37:09;8.00;;;3.47;;
9563;SDS011;4820;50.870;4.702;2023-07-13T07:39:38;12.40;;;3.88;;
9563;SDS011;4820;50.870;4.702;2023-07-13T07:42:05;9.48;;;3.80;;
9563;SDS011;4820;50.870;4.702;2023-07-13T07:44:32;9.52;;;3.45;;
9563;SDS011;4820;50.870;4.702;2023-07-13T07:46:58;8.00;;;3.05;;
9563;SDS011;4820;50.870;4.702;2023-07-13T07:49:23;11.40;;;3.53;;
9563;SDS011;4820;50.870;4.702;2023-07-13T07:51:49;9.70;;;3.40;;
9563;SDS011;4820;50.870;4.702;2023-07-13T07:54:16;7.47;;;3.70;;
9563;SDS011;4820;50.870;4.702;2023-07-13T07:56:42;8.73;;;3.15;;
9563;SDS011;4820;50.870;4.702;2023-07-13T07:59:08;8.75;;;3.20;;
9563;SDS011;4820;50.870;4.702;2023-07-13T08:01:35;8.68;;;3.28;;
9563;SDS011;4820;50.870;4.702;2023-07-13T08:04:02;8.23;;;3.47;;
9563;SDS011;4820;50.870;4.702;2023-07-13T08:06:28;8.52;;;3.47;;
9563;SDS011;4820;50.870;4.702;2023-07-13T08:08:54;13.65;;;4.13;;
9563;SDS011;4820;50.870;4.702;2023-07-13T08:11:20;11.02;;;3.80;;
9563;SDS011;4820;50.870;4.702;2023-07-13T08:13:47;10.70;;;3.55;;
9563;SDS011;4820;50.870;4.702;2023-07-13T08:16:12;7.45;;;3.30;;
9563;SDS011;4820;50.870;4.702;2023-07-13T08:18:38;8.32;;;3.20;;
9563;SDS011;4820;50.870;4.702;2023-07-13T08:21:05;7.70;;;3.55;;
9563;SDS011;4820;50.870;4.702;2023-07-13T08:23:31;7.65;;;3.13;;
9563;SDS011;4820;50.870;4.702;2023-07-13T08:25:57;7.60;;;3.35;;
9563;SDS011;4820;50.870;4.702;2023-07-13T08:28:24;9.82;;;3.72;;
9563;SDS011;4820;50.870;4.702;2023-07-13T08:30:50;5.10;;;3.17;;
9563;SDS011;4820;50.870;4.702;2023-07-13T08:33:18;10.80;;;3.45;;
9563;SDS011;4820;50.870;4.702;2023-07-13T08:35:46;9.25;;;2.97;;
9563;SDS011;4820;50.870;4.702;2023-07-13T08:38:14;8.65;;;3.15;;
9563;SDS011;4820;50.870;4.702;2023-07-13T08:40:41;8.60;;;2.90;;
9563;SDS011;4820;50.870;4.702;2023-07-13T08:43:15;8.35;;;3.03;;
9563;SDS011;4820;50.870;4.702;2023-07-13T08:48:24;7.68;;;2.70;;
9563;SDS011;4820;50.870;4.702;2023-07-13T08:51:02;7.28;;;2.88;;
9563;SDS011;4820;50.870;4.702;2023-07-13T08:53:51;9.07;;;3.55;;
9563;SDS011;4820;50.870;4.702;2023-07-13T08:56:20;11.02;;;3.33;;
9563;SDS011;4820;50.870;4.702;2023-07-13T08:58:49;6.75;;;2.80;;
9563;SDS011;4820;50.870;4.702;2023-07-13T09:01:45;10.20;;;3.28;;
9563;SDS011;4820;50.870;4.702;2023-07-13T09:04:36;8.18;;;3.17;;
9563;SDS011;4820;50.870;4.702;2023-07-13T09:15:43;7.53;;;2.70;;
9563;SDS011;4820;50.870;4.702;2023-07-13T09:18:16;5.72;;;2.40;;
9563;SDS011;4820;50.870;4.702;2023-07-13T09:20:52;7.47;;;2.83;;
9563;SDS011;4820;50.870;4.702;2023-07-13T09:23:31;7.93;;;3.13;;
9563;SDS011;4820;50.870;4.702;2023-07-13T09:26:19;5.47;;;2.65;;
9563;SDS011;4820;50.870;4.702;2023-07-13T09:28:46;4.38;;;2.40;;
9563;SDS011;4820;50.870;4.702;2023-07-13T09:33:49;6.50;;;2.50;;
9563;SDS011;4820;50.870;4.702;2023-07-13T09:36:24;5.30;;;2.50;;
9563;SDS011;4820;50.870;4.702;2023-07-13T09:47:16;5.28;;;2.33;;
9563;SDS011;4820;50.870;4.702;2023-07-13T09:49:44;7.13;;;2.60;;
9563;SDS011;4820;50.870;4.702;2023-07-13T09:52:12;5.38;;;2.60;;
9563;SDS011;4820;50.870;4.702;2023-07-13T09:54:43;8.43;;;2.95;;
9563;SDS011;4820;50.870;4.702;2023-07-13T09:57:14;6.82;;;2.60;;
9563;SDS011;4820;50.870;4.702;2023-07-13T09:59:46;9.25;;;2.70;;
9563;SDS011;4820;50.870;4.702;2023-07-13T10:02:23;5.72;;;2.53;;
9563;SDS011;4820;50.870;4.702;2023-07-13T10:05:03;6.45;;;2.70;;
9563;SDS011;4820;50.870;4.702;2023-07-13T10:07:32;5.95;;;2.20;;
9563;SDS011;4820;50.870;4.702;2023-07-13T10:10:21;7.57;;;2.63;;
9563;SDS011;4820;50.870;4.702;2023-07-13T10:12:49;6.22;;;2.80;;
9563;SDS011;4820;50.870;4.702;2023-07-13T10:15:18;6.10;;;2.45;;
9563;SDS011;4820;50.870;4.702;2023-07-13T10:17:47;6.45;;;2.17;;
9563;SDS011;4820;50.870;4.702;2023-07-13T10:20:14;5.82;;;2.13;;
9563;SDS011;4820;50.870;4.702;2023-07-13T10:25:34;4.75;;;2.20;;
9563;SDS011;4820;50.870;4.702;2023-07-13T10:28:09;4.63;;;2.20;;
9563;SDS011;4820;50.870;4.702;2023-07-13T10:30:52;8.55;;;2.50;;
9563;SDS011;4820;50.870;4.702;2023-07-13T10:33:20;4.20;;;2.20;;
9563;SDS011;4820;50.870;4.702;2023-07-13T10:35:47;5.68;;;2.10;;
9563;SDS011;4820;50.870;4.702;2023-07-13T10:38:21;5.32;;;2.40;;
9563;SDS011;4820;50.870;4.702;2023-07-13T10:41:00;4.78;;;2.17;;
9563;SDS011;4820;50.870;4.702;2023-07-13T10:43:43;7.38;;;2.33;;
9563;SDS011;4820;50.870;4.702;2023-07-13T10:46:15;5.60;;;2.25;;
9563;SDS011;4820;50.870;4.702;2023-07-13T10:48:44;5.80;;;2.60;;
9563;SDS011;4820;50.870;4.702;2023-07-13T10:51:14;3.75;;;2.13;;
9563;SDS011;4820;50.870;4.702;2023-07-13T10:53:43;4.57;;;2.00;;
9563;SDS011;4820;50.870;4.702;2023-07-13T10:58:47;4.43;;;2.00;;
9563;SDS011;4820;50.870;4.702;2023-07-13T11:01:25;6.05;;;2.35;;
9563;SDS011;4820;50.870;4.702;2023-07-13T11:04:05;4.10;;;2.45;;
9563;SDS011;4820;50.870;4.702;2023-07-13T11:06:38;6.07;;;2.15;;
9563;SDS011;4820;50.870;4.702;2023-07-13T11:11:58;3.72;;;1.92;;
9563;SDS011;4820;50.870;4.702;2023-07-13T11:14:42;4.38;;;2.10;;
9563;SDS011;4820;50.870;4.702;2023-07-13T11:20:40;4.18;;;2.00;;
9563;SDS011;4820;50.870;4.702;2023-07-13T11:22:43;4.20;;;2.05;;
9563;SDS011;4820;50.870;4.702;2023-07-13T11:25:33;4.28;;;2.10;;
9563;SDS011;4820;50.870;4.702;2023-07-13T11:36:00;4.55;;;2.15;;
9563;SDS011;4820;50.870;4.702;2023-07-13T11:41:00;5.90;;;2.20;;
9563;SDS011;4820;50.870;4.702;2023-07-13T11:43:32;6.50;;;2.17;;
9563;SDS011;4820;50.870;4.702;2023-07-13T11:46:11;3.10;;;1.90;;
9563;SDS011;4820;50.870;4.702;2023-07-13T11:48:38;3.03;;;1.92;;
9563;SDS011;4820;50.870;4.702;2023-07-13T11:51:06;4.05;;;2.20;;
9563;SDS011;4820;50.870;4.702;2023-07-13T11:53:43;5.78;;;2.35;;
9563;SDS011;4820;50.870;4.702;2023-07-13T11:56:11;5.63;;;2.17;;
9563;SDS011;4820;50.870;4.702;2023-07-13T11:58:37;5.95;;;2.15;;
9563;SDS011;4820;50.870;4.702;2023-07-13T12:01:04;3.97;;;1.85;;
9563;SDS011;4820;50.870;4.702;2023-07-13T12:03:30;3.75;;;2.15;;
9563;SDS011;4820;50.870;4.702;2023-07-13T12:06:00;4.60;;;2.00;;
9563;SDS011;4820;50.870;4.702;2023-07-13T12:08:28;6.65;;;2.33;;
9563;SDS011;4820;50.870;4.702;2023-07-13T12:10:56;3.70;;;1.60;;
9563;SDS011;4820;50.870;4.702;2023-07-13T12:13:24;3.53;;;1.77;;
9563;SDS011;4820;50.870;4.702;2023-07-13T12:15:55;2.58;;;1.90;;
9563;SDS011;4820;50.870;4.702;2023-07-13T12:18:22;3.05;;;1.77;;
9563;SDS011;4820;50.870;4.702;2023-07-13T12:20:55;2.90;;;1.80;;
9563;SDS011;4820;50.870;4.702;2023-07-13T12:25:50;6.13;;;2.15;;
9563;SDS011;4820;50.870;4.702;2023-07-13T12:28:37;3.55;;;2.10;;
9563;SDS011;4820;50.870;4.702;2023-07-13T12:34:01;4.22;;;2.00;;
9563;SDS011;4820;50.870;4.702;2023-07-13T12:36:47;4.18;;;1.80;;
9563;SDS011;4820;50.870;4.702;2023-07-13T12:41:42;3.38;;;1.90;;
9563;SDS011;4820;50.870;4.702;2023-07-13T12:44:29;3.58;;;2.03;;
9563;SDS011;4820;50.870;4.702;2023-07-13T12:47:06;3.83;;;1.92;;
9563;SDS011;4820;50.870;4.702;2023-07-13T12:49:41;3.65;;;1.90;;
9563;SDS011;4820;50.870;4.702;2023-07-13T12:52:21;5.07;;;1.90;;
9563;SDS011;4820;50.870;4.702;2023-07-13T12:55:05;3.20;;;1.85;;
9563;SDS011;4820;50.870;4.702;2023-07-13T12:57:57;3.63;;;2.10;;
9563;SDS011;4820;50.870;4.702;2023-07-13T13:00:30;4.75;;;1.88;;
9563;SDS011;4820;50.870;4.702;2023-07-13T13:03:05;4.47;;;2.00;;
9563;SDS011;4820;50.870;4.702;2023-07-13T13:05:42;4.72;;;1.85;;
9563;SDS011;4820;50.870;4.702;2023-07-13T13:08:10;3.50;;;1.80;;
9563;SDS011;4820;50.870;4.702;2023-07-13T13:10:36;2.95;;;1.85;;
9563;SDS011;4820;50.870;4.702;2023-07-13T13:13:02;6.80;;;2.03;;
9563;SDS011;4820;50.870;4.702;2023-07-13T13:15:28;3.20;;;1.70;;
9563;SDS011;4820;50.870;4.702;2023-07-13T13:17:55;3.38;;;1.60;;
9563;SDS011;4820;50.870;4.702;2023-07-13T13:20:21;4.95;;;2.20;;
9563;SDS011;4820;50.870;4.702;2023-07-13T13:22:49;3.95;;;1.98;;
9563;SDS011;4820;50.870;4.702;2023-07-13T13:25:14;3.67;;;1.60;;
9563;SDS011;4820;50.870;4.702;2023-07-13T13:27:42;3.63;;;2.15;;
9563;SDS011;4820;50.870;4.702;2023-07-13T13:30:11;4.32;;;1.98;;
9563;SDS011;4820;50.870;4.702;2023-07-13T13:32:45;3.17;;;2.20;;
9563;SDS011;4820;50.870;4.702;2023-07-13T13:35:16;3.47;;;2.28;;
9563;SDS011;4820;50.870;4.702;2023-07-13T13:37:45;2.97;;;1.98;;
9563;SDS011;4820;50.870;4.702;2023-07-13T13:40:20;3.47;;;2.00;;
9563;SDS011;4820;50.870;4.702;2023-07-13T13:42:48;3.83;;;2.00;;
9563;SDS011;4820;50.870;4.702;2023-07-13T13:45:14;4.03;;;2.13;;
9563;SDS011;4820;50.870;4.702;2023-07-13T13:47:43;5.15;;;2.42;;
9563;SDS011;4820;50.870;4.702;2023-07-13T13:50:13;2.92;;;2.22;;
9563;SDS011;4820;50.870;4.702;2023-07-13T13:52:45;4.13;;;2.25;;
9563;SDS011;4820;50.870;4.702;2023-07-13T13:55:16;3.92;;;1.70;;
9563;SDS011;4820;50.870;4.702;2023-07-13T13:57:47;2.97;;;1.83;;
9563;SDS011;4820;50.870;4.702;2023-07-13T14:00:14;3.20;;;2.00;;
9563;SDS011;4820;50.870;4.702;2023-07-13T14:02:44;4.97;;;1.98;;
9563;SDS011;4820;50.870;4.702;2023-07-13T14:05:21;2.63;;;1.60;;
9563;SDS011;4820;50.870;4.702;2023-07-13T14:07:48;3.85;;;1.85;;
9563;SDS011;4820;50.870;4.702;2023-07-13T14:10:15;2.10;;;1.55;;
9563;SDS011;4820;50.870;4.702;2023-07-13T14:12:44;2.90;;;1.70;;
9563;SDS011;4820;50.870;4.702;2023-07-13T14:15:18;2.72;;;1.90;;
9563;SDS011;4820;50.870;4.702;2023-07-13T14:17:47;4.15;;;1.80;;
9563;SDS011;4820;50.870;4.702;2023-07-13T14:20:17;3.58;;;2.00;;
9563;SDS011;4820;50.870;4.702;2023-07-13T14:22:45;3.15;;;1.80;;
9563;SDS011;4820;50.870;4.702;2023-07-13T14:25:12;3.63;;;2.10;;
9563;SDS011;4820;50.870;4.702;2023-07-13T14:27:43;3.20;;;1.90;;
9563;SDS011;4820;50.870;4.702;2023-07-13T14:30:17;2.65;;;2.00;;
9563;SDS011;4820;50.870;4.702;2023-07-13T14:32:44;2.75;;;1.98;;
9563;SDS011;4820;50.870;4.702;2023-07-13T14:35:11;2.85;;;1.77;;
9563;SDS011;4820;50.870;4.702;2023-07-13T14:37:39;2.83;;;2.10;;
9563;SDS011;4820;50.870;4.702;2023-07-13T14:40:20;3.72;;;2.13;;
9563;SDS011;4820;50.870;4.702;2023-07-13T14:42:51;2.85;;;1.60;;
9563;SDS011;4820;50.870;4.702;2023-07-13T14:45:17;3.22;;;1.90;;
9563;SDS011;4820;50.870;4.702;2023-07-13T14:47:44;3.97;;;1.85;;
9563;SDS011;4820;50.870;4.702;2023-07-13T14:50:14;3.72;;;2.10;;
9563;SDS011;4820;50.870;4.702;2023-07-13T14:52:41;3.08;;;1.80;;
9563;SDS011;4820;50.870;4.702;2023-07-13T14:55:12;5.45;;;2.25;;
9563;SDS011;4820;50.870;4.702;2023-07-13T14:57:39;4.25;;;1.83;;
9563;SDS011;4820;50.870;4.702;2023-07-13T15:00:12;3.35;;;1.90;;
9563;SDS011;4820;50.870;4.702;2023-07-13T15:02:40;2.78;;;1.60;;
9563;SDS011;4820;50.870;4.702;2023-07-13T15:05:20;6.47;;;2.00;;
9563;SDS011;4820;50.870;4.702;2023-07-13T15:07:48;3.22;;;2.03;;
9563;SDS011;4820;50.870;4.702;2023-07-13T15:10:21;4.45;;;1.85;;
9563;SDS011;4820;50.870;4.702;2023-07-13T15:12:52;3.53;;;1.88;;
9563;SDS011;4820;50.870;4.702;2023-07-13T15:15:18;4.55;;;1.90;;
9563;SDS011;4820;50.870;4.702;2023-07-13T15:17:45;6.22;;;2.30;;
9563;SDS011;4820;50.870;4.702;2023-07-13T15:22:54;4.43;;;1.90;;
9563;SDS011;4820;50.870;4.702;2023-07-13T15:25:21;2.85;;;1.90;;
9563;SDS011;4820;50.870;4.702;2023-07-13T15:27:49;4.80;;;2.05;;
9563;SDS011;4820;50.870;4.702;2023-07-13T15:30:16;3.05;;;1.70;;
9563;SDS011;4820;50.870;4.702;2023-07-13T15:32:45;2.30;;;1.73;;
9563;SDS011;4820;50.870;4.702;2023-07-13T15:35:16;3.60;;;1.90;;
9563;SDS011;4820;50.870;4.702;2023-07-13T15:37:49;4.90;;;1.98;;
9563;SDS011;4820;50.870;4.702;2023-07-13T15:40:15;4.47;;;2.00;;
9563;SDS011;4820;50.870;4.702;2023-07-13T15:42:41;5.45;;;1.80;;
9563;SDS011;4820;50.870;4.702;2023-07-13T15:45:15;5.18;;;2.28;;
9563;SDS011;4820;50.870;4.702;2023-07-13T15:47:43;4.38;;;2.20;;
9563;SDS011;4820;50.870;4.702;2023-07-13T15:50:16;3.45;;;1.85;;
9563;SDS011;4820;50.870;4.702;2023-07-13T15:52:47;3.60;;;2.10;;
9563;SDS011;4820;50.870;4.702;2023-07-13T15:55:15;5.00;;;1.80;;
9563;SDS011;4820;50.870;4.702;2023-07-13T15:57:48;3.42;;;1.88;;
9563;SDS011;4820;50.870;4.702;2023-07-13T16:00:22;3.10;;;1.73;;
9563;SDS011;4820;50.870;4.702;2023-07-13T16:02:50;3.55;;;1.92;;
9563;SDS011;4820;50.870;4.702;2023-07-13T16:05:17;2.83;;;1.70;;
9563;SDS011;4820;50.870;4.702;2023-07-13T16:07:45;3.67;;;1.90;;
9563;SDS011;4820;50.870;4.702;2023-07-13T16:10:25;4.82;;;2.30;;
9563;SDS011;4820;50.870;4.702;2023-07-13T16:12:57;3.53;;;2.10;;
9563;SDS011;4820;50.870;4.702;2023-07-13T16:15:23;4.00;;;2.10;;
9563;SDS011;4820;50.870;4.702;2023-07-13T16:17:49;3.10;;;2.05;;
9563;SDS011;4820;50.870;4.702;2023-07-13T16:20:16;3.97;;;2.10;;
9563;SDS011;4820;50.870;4.702;2023-07-13T16:22:50;2.53;;;1.70;;